createdAt,value
2023-03-21T00:01:50.956Z,35.67
2023-03-21T00:04:17.996Z,27.95
2023-03-21T00:06:45.647Z,36.63
2023-03-21T00:09:12.784Z,31.67
2023-03-21T00:11:40.699Z,27.17
2023-03-21T00:14:08.757Z,31.80
2023-03-21T00:16:39.116Z,32.22
2023-03-21T00:19:07.452Z,34.00
2023-03-21T00:21:55.697Z,27.05
2023-03-21T00:24:25.464Z,29.00
2023-03-21T00:26:52.165Z,31.27
2023-03-21T00:29:19.040Z,29.80
2023-03-21T00:31:45.815Z,32.35
2023-03-21T00:36:40.370Z,33.42
2023-03-21T00:39:07.759Z,32.97
2023-03-21T00:41:42.389Z,36.75
2023-03-21T00:44:11.746Z,22.25
2023-03-21T00:46:57.353Z,31.05
2023-03-21T00:49:25.942Z,29.92
2023-03-21T00:51:54.984Z,23.88
2023-03-21T00:54:21.952Z,24.05
2023-03-21T00:56:48.651Z,16.88
2023-03-21T00:59:15.365Z,25.10
2023-03-21T01:01:42.119Z,23.02
2023-03-21T01:04:13.535Z,20.63
2023-03-21T01:06:42.033Z,14.40
2023-03-21T01:09:17.402Z,30.75
2023-03-21T01:11:45.145Z,24.90
2023-03-21T01:14:28.597Z,20.38
2023-03-21T01:16:55.266Z,18.90
2023-03-21T01:19:37.584Z,22.25
2023-03-21T01:22:08.913Z,20.75
2023-03-21T01:24:40.424Z,19.30
2023-03-21T01:27:13.385Z,24.38
2023-03-21T01:29:40.077Z,30.50
2023-03-21T01:32:06.984Z,34.47
2023-03-21T01:34:33.646Z,35.30
2023-03-21T01:37:00.586Z,30.75
2023-03-21T01:39:27.266Z,27.75
2023-03-21T01:41:54.898Z,33.22
2023-03-21T01:44:21.636Z,25.45
2023-03-21T01:47:03.920Z,31.95
2023-03-21T01:49:40.825Z,25.40
2023-03-21T01:52:20.997Z,37.83
2023-03-21T01:54:53.075Z,26.42
2023-03-21T01:57:40.378Z,24.02
2023-03-21T02:00:12.955Z,20.45
2023-03-21T02:02:52.204Z,26.33
2023-03-21T02:05:28.766Z,22.60
2023-03-21T02:07:55.485Z,20.92
2023-03-21T02:10:22.550Z,25.25
2023-03-21T02:12:55.163Z,21.13
2023-03-21T02:15:26.399Z,19.02
2023-03-21T02:18:23.397Z,16.88
2023-03-21T02:21:31.726Z,24.20
2023-03-21T02:24:31.078Z,21.55
2023-03-21T02:27:15.694Z,25.00
2023-03-21T02:29:52.334Z,25.33
2023-03-21T02:32:44.645Z,22.23
2023-03-21T02:35:20.079Z,24.75
2023-03-21T02:38:00.545Z,21.33
2023-03-21T02:40:32.964Z,20.58
2023-03-21T02:43:22.477Z,20.08
2023-03-21T02:46:02.054Z,20.50
2023-03-21T02:48:50.125Z,19.27
2023-03-21T02:51:21.457Z,20.90
2023-03-21T02:54:23.743Z,20.35
2023-03-21T02:56:49.008Z,21.50
2023-03-21T02:59:17.554Z,21.52
2023-03-21T03:01:44.248Z,18.40
2023-03-21T03:04:20.242Z,25.85
2023-03-21T03:07:11.748Z,27.15
2023-03-21T03:09:38.658Z,28.80
2023-03-21T03:12:52.208Z,30.27
2023-03-21T03:15:28.284Z,33.60
2023-03-21T03:18:11.570Z,27.52
2023-03-21T03:21:04.682Z,29.42
2023-03-21T03:23:36.318Z,27.27
2023-03-21T03:26:08.757Z,28.92
2023-03-21T03:28:46.665Z,30.75
2023-03-21T03:31:17.151Z,20.83
2023-03-21T03:33:49.264Z,25.13
2023-03-21T03:36:33.429Z,26.20
2023-03-21T03:39:04.606Z,33.53
2023-03-21T03:42:01.421Z,27.20
2023-03-21T03:44:21.303Z,35.90
2023-03-21T03:47:15.176Z,23.98
2023-03-21T03:49:59.374Z,24.50
2023-03-21T03:52:35.036Z,31.55
2023-03-21T03:55:02.624Z,25.02
2023-03-21T03:57:29.869Z,23.05
2023-03-21T03:59:57.538Z,28.48
2023-03-21T04:02:24.349Z,25.85
2023-03-21T04:04:53.367Z,25.02
2023-03-21T04:07:21.404Z,24.35
2023-03-21T04:09:48.120Z,29.60
2023-03-21T04:12:14.758Z,32.15
2023-03-21T04:14:46.964Z,25.70
2023-03-21T04:17:15.536Z,27.10
2023-03-21T04:19:42.583Z,24.98
2023-03-21T04:22:09.423Z,31.65
2023-03-21T04:24:37.397Z,27.83
2023-03-21T04:27:05.767Z,27.73
2023-03-21T04:29:32.925Z,35.55
2023-03-21T04:31:59.808Z,25.38
2023-03-21T04:34:28.081Z,22.40
2023-03-21T04:36:55.480Z,32.35
2023-03-21T04:39:22.287Z,29.38
2023-03-21T04:41:49.877Z,29.58
2023-03-21T04:44:17.172Z,27.83
2023-03-21T04:46:44.588Z,26.17
2023-03-21T04:49:11.428Z,26.35
2023-03-21T04:51:38.862Z,31.80
2023-03-21T04:54:05.893Z,26.15
2023-03-21T04:56:33.905Z,31.17
2023-03-21T04:59:03.746Z,30.00
2023-03-21T05:01:30.886Z,26.52
2023-03-21T05:04:02.428Z,32.15
2023-03-21T05:06:29.898Z,25.15
2023-03-21T05:09:01.685Z,25.27
2023-03-21T05:11:30.881Z,31.55
2023-03-21T05:13:59.240Z,32.28
2023-03-21T05:16:30.478Z,27.35
2023-03-21T05:18:59.094Z,25.58
2023-03-21T05:21:29.452Z,26.45
2023-03-21T05:23:58.315Z,25.75
2023-03-21T05:26:25.301Z,27.92
2023-03-21T05:28:51.984Z,25.48
2023-03-21T05:31:19.204Z,27.25
2023-03-21T05:33:46.906Z,28.05
2023-03-21T05:36:14.773Z,32.00
2023-03-21T05:38:45.384Z,29.20
2023-03-21T05:41:13.356Z,28.40
2023-03-21T05:43:40.135Z,24.95
2023-03-21T05:46:07.642Z,25.05
2023-03-21T05:48:34.769Z,30.75
2023-03-21T05:51:02.480Z,25.42
2023-03-21T05:53:29.250Z,24.65
2023-03-21T05:55:56.042Z,30.33
2023-03-21T05:58:22.806Z,22.80
2023-03-21T06:00:49.493Z,22.88
2023-03-21T06:03:16.152Z,23.48
2023-03-21T06:05:42.834Z,27.63
2023-03-21T06:08:09.466Z,28.83
2023-03-21T06:10:36.312Z,27.77
2023-03-21T06:13:02.950Z,24.52
2023-03-21T06:15:29.693Z,21.80
2023-03-21T06:17:56.502Z,19.45
2023-03-21T06:20:23.160Z,29.90
2023-03-21T06:22:49.798Z,27.40
2023-03-21T06:25:16.663Z,29.55
2023-03-21T06:27:43.337Z,23.23
2023-03-21T06:30:11.904Z,24.02
2023-03-21T06:32:38.661Z,27.90
2023-03-21T06:35:05.766Z,26.65
2023-03-21T06:37:32.419Z,28.70
2023-03-21T06:39:59.091Z,26.27
2023-03-21T06:42:25.761Z,22.60
2023-03-21T06:44:52.469Z,28.88
2023-03-21T06:47:19.173Z,39.40
2023-03-21T06:49:45.979Z,20.90
2023-03-21T06:52:12.683Z,27.55
2023-03-21T06:54:39.342Z,35.85
2023-03-21T06:57:05.988Z,25.98
2023-03-21T06:59:32.692Z,26.48
2023-03-21T07:01:59.353Z,25.60
2023-03-21T07:04:27.047Z,27.60
2023-03-21T07:06:54.022Z,25.65
2023-03-21T07:09:24.435Z,21.52
2023-03-21T07:11:53.463Z,24.23
2023-03-21T07:14:20.256Z,30.80
2023-03-21T07:16:47.092Z,27.80
2023-03-21T07:19:14.035Z,22.80
2023-03-21T07:21:40.810Z,17.88
2023-03-21T07:24:07.727Z,20.50
2023-03-21T07:26:34.532Z,22.30
2023-03-21T07:29:01.235Z,16.52
2023-03-21T07:31:27.943Z,20.92
2023-03-21T07:33:54.794Z,20.98
2023-03-21T07:36:22.124Z,23.83
2023-03-21T07:38:49.135Z,19.92
2023-03-21T07:43:43.773Z,18.23
2023-03-21T07:46:10.827Z,18.63
2023-03-21T07:48:37.997Z,18.52
2023-03-21T07:51:06.338Z,17.40
2023-03-21T07:53:33.002Z,29.27
2023-03-21T07:55:59.698Z,15.35
2023-03-21T07:58:27.204Z,25.15
2023-03-21T08:00:53.986Z,16.02
2023-03-21T08:03:21.208Z,18.02
2023-03-21T08:05:47.931Z,26.02
2023-03-21T08:08:14.734Z,24.73
2023-03-21T08:10:43.636Z,24.23
2023-03-21T08:13:10.250Z,21.95
2023-03-21T08:15:37.678Z,15.20
2023-03-21T08:18:04.510Z,22.83
2023-03-21T08:20:31.211Z,22.15
2023-03-21T08:22:57.938Z,16.92
2023-03-21T08:25:24.884Z,25.63
2023-03-21T08:27:52.703Z,22.88
2023-03-21T08:30:22.217Z,19.17
2023-03-21T08:32:49.784Z,21.73
2023-03-21T08:35:18.640Z,20.13
2023-03-21T08:37:45.287Z,26.23
2023-03-21T08:40:15.533Z,25.38
2023-03-21T08:42:43.258Z,28.00
2023-03-21T08:45:11.172Z,25.95
2023-03-21T08:47:37.940Z,21.67
2023-03-21T08:50:07.108Z,23.85
2023-03-21T08:52:34.161Z,22.80
2023-03-21T08:55:02.262Z,28.02
2023-03-21T08:57:29.706Z,23.35
2023-03-21T08:59:56.565Z,16.05
2023-03-21T09:02:23.230Z,24.40
2023-03-21T09:04:49.981Z,27.75
2023-03-21T09:07:17.956Z,22.25
2023-03-21T09:09:45.960Z,21.95
2023-03-21T09:12:14.452Z,17.85
2023-03-21T09:14:41.216Z,20.65
2023-03-21T09:17:07.902Z,20.38
2023-03-21T09:19:35.005Z,21.42
2023-03-21T09:22:04.990Z,18.10
2023-03-21T09:24:32.081Z,21.73
2023-03-21T09:26:59.461Z,24.80
2023-03-21T09:29:26.445Z,16.88
2023-03-21T09:31:54.376Z,16.08
2023-03-21T09:34:21.216Z,25.52
2023-03-21T09:36:48.813Z,21.52
2023-03-21T09:39:17.064Z,14.32
2023-03-21T09:41:55.653Z,16.35
2023-03-21T09:44:31.940Z,20.70
2023-03-21T09:47:22.077Z,11.85
2023-03-21T09:50:12.903Z,19.42
2023-03-21T09:52:50.646Z,14.40
2023-03-21T09:55:22.436Z,13.15
2023-03-21T09:57:59.526Z,12.07
2023-03-21T10:00:35.115Z,13.70
2023-03-21T10:03:06.811Z,15.80
2023-03-21T10:05:35.544Z,12.88
2023-03-21T10:08:19.360Z,17.98
2023-03-21T10:10:50.374Z,19.15
2023-03-21T10:13:25.447Z,22.05
2023-03-21T10:15:58.364Z,10.55
2023-03-21T10:18:27.874Z,18.38
2023-03-21T10:20:54.800Z,22.77
2023-03-21T10:23:27.674Z,20.17
2023-03-21T10:26:07.913Z,13.93
2023-03-21T10:28:52.420Z,19.48
2023-03-21T10:31:25.424Z,19.90
2023-03-21T10:33:55.346Z,22.45
2023-03-21T10:36:28.086Z,17.13
2023-03-21T10:39:04.879Z,18.30
2023-03-21T10:41:32.625Z,22.98
2023-03-21T10:44:11.958Z,16.13
2023-03-21T10:46:38.811Z,23.48
2023-03-21T10:49:08.393Z,18.15
2023-03-21T10:51:37.756Z,21.40
2023-03-21T10:54:17.935Z,17.10
2023-03-21T10:56:55.102Z,16.52
2023-03-21T10:59:22.874Z,19.52
2023-03-21T11:01:56.420Z,19.00
2023-03-21T11:04:27.531Z,24.15
2023-03-21T11:07:08.171Z,17.70
2023-03-21T11:09:57.809Z,18.65
2023-03-21T11:12:37.087Z,25.23
2023-03-21T11:15:23.989Z,9.90
2023-03-21T11:17:50.722Z,17.33
2023-03-21T11:20:21.519Z,12.40
2023-03-21T11:22:49.329Z,18.88
2023-03-21T11:25:31.971Z,17.10
2023-03-21T11:28:05.030Z,17.67
2023-03-21T11:30:32.922Z,12.48
2023-03-21T11:33:06.205Z,13.93
2023-03-21T11:35:37.022Z,11.18
2023-03-21T11:38:04.468Z,18.85
2023-03-21T11:40:34.134Z,15.02
2023-03-21T11:43:04.094Z,20.38
2023-03-21T11:45:35.877Z,15.35
2023-03-21T11:48:12.838Z,16.90
2023-03-21T11:50:42.492Z,14.93
2023-03-21T11:53:44.262Z,14.95
2023-03-21T11:56:23.125Z,9.07
2023-03-21T11:59:33.276Z,19.10
2023-03-21T12:02:19.640Z,12.95
2023-03-21T12:04:57.203Z,17.80
2023-03-21T12:07:47.514Z,12.55
2023-03-21T12:10:14.141Z,18.25
2023-03-21T12:13:08.196Z,12.02
2023-03-21T12:16:02.927Z,12.85
2023-03-21T12:18:43.446Z,12.70
2023-03-21T12:21:26.565Z,5.53
2023-03-21T12:24:24.480Z,9.85
2023-03-21T12:27:07.041Z,14.85
2023-03-21T12:29:43.892Z,21.98
2023-03-21T12:32:43.699Z,16.00
2023-03-21T12:35:16.588Z,19.40
2023-03-21T12:38:10.379Z,13.48
2023-03-21T12:40:49.581Z,6.65
2023-03-21T12:43:44.163Z,12.52
2023-03-21T12:46:29.853Z,23.30
2023-03-21T12:49:26.483Z,16.70
2023-03-21T12:52:01.676Z,16.98
2023-03-21T12:54:54.655Z,16.23
2023-03-21T12:57:51.087Z,13.70
2023-03-21T13:00:27.647Z,15.38
2023-03-21T13:03:01.196Z,20.65
2023-03-21T13:05:59.755Z,12.27
2023-03-21T13:08:51.304Z,18.08
2023-03-21T13:11:22.388Z,23.55
2023-03-21T13:14:11.111Z,14.35
2023-03-21T13:17:00.585Z,13.38
2023-03-21T13:19:46.526Z,25.08
2023-03-21T13:22:28.851Z,15.20
2023-03-21T13:25:04.489Z,17.75
2023-03-21T13:27:34.017Z,21.02
2023-03-21T13:30:02.583Z,10.43
2023-03-21T13:32:41.596Z,15.32
2023-03-21T13:35:27.144Z,14.30
2023-03-21T13:37:59.140Z,11.65
2023-03-21T13:40:34.540Z,17.65
2023-03-21T13:43:03.782Z,16.35
2023-03-21T13:45:45.231Z,12.93
2023-03-21T13:48:30.406Z,17.92
2023-03-21T13:51:02.375Z,13.63
2023-03-21T13:53:39.916Z,26.67
2023-03-21T13:56:22.014Z,16.08
2023-03-21T13:58:53.067Z,15.55
2023-03-21T14:01:39.712Z,15.30
2023-03-21T14:04:17.404Z,18.13
2023-03-21T14:07:05.032Z,18.00
2023-03-21T14:09:33.957Z,13.75
2023-03-21T14:12:07.551Z,17.45
2023-03-21T14:14:42.201Z,12.83
2023-03-21T14:17:13.506Z,13.07
2023-03-21T14:19:40.253Z,14.35
2023-03-21T14:22:13.092Z,11.52
2023-03-21T14:24:41.148Z,11.73
2023-03-21T14:27:08.797Z,8.65
2023-03-21T14:29:35.873Z,14.07
2023-03-21T14:32:05.650Z,4.15
2023-03-21T14:34:35.684Z,11.70
2023-03-21T14:37:02.440Z,9.20
2023-03-21T14:39:31.946Z,6.00
2023-03-21T14:42:06.102Z,7.90
2023-03-21T14:44:53.597Z,10.93
2023-03-21T14:47:24.176Z,11.60
2023-03-21T14:49:51.914Z,16.05
2023-03-21T14:52:29.998Z,12.80
2023-03-21T14:54:57.170Z,9.57
2023-03-21T14:57:29.003Z,12.35
2023-03-21T15:00:01.743Z,18.08
2023-03-21T15:02:35.802Z,15.82
2023-03-21T15:05:15.374Z,13.15
2023-03-21T15:07:42.057Z,12.98
2023-03-21T15:10:17.988Z,12.98
2023-03-21T15:13:02.938Z,12.25
2023-03-21T15:15:31.693Z,14.70
2023-03-21T15:18:03.975Z,7.20
2023-03-21T15:20:34.285Z,17.92
2023-03-21T15:23:07.145Z,11.52
2023-03-21T15:25:35.953Z,4.55
2023-03-21T15:28:04.330Z,10.38
2023-03-21T15:30:36.849Z,8.55
2023-03-21T15:33:09.697Z,7.93
2023-03-21T15:35:44.474Z,4.25
2023-03-21T15:38:42.458Z,6.70
2023-03-21T15:41:21.195Z,10.32
2023-03-21T15:44:02.619Z,7.78
2023-03-21T15:46:44.432Z,8.98
2023-03-21T15:49:16.818Z,7.28
2023-03-21T15:51:51.398Z,10.52
2023-03-21T15:54:28.738Z,13.27
2023-03-21T15:56:57.453Z,11.85
2023-03-21T15:59:27.329Z,8.73
2023-03-21T16:01:54.169Z,14.88
2023-03-21T16:04:21.024Z,13.88
2023-03-21T16:06:58.336Z,13.23
2023-03-21T16:09:25.366Z,14.15
2023-03-21T16:11:56.979Z,19.95
2023-03-21T16:14:27.807Z,16.88
2023-03-21T16:16:55.042Z,20.67
2023-03-21T16:19:21.987Z,6.93
2023-03-21T16:21:48.609Z,19.40
2023-03-21T16:24:15.285Z,13.27
2023-03-21T16:26:47.886Z,11.45
2023-03-21T16:29:15.895Z,10.60
2023-03-21T16:31:43.061Z,12.77
2023-03-21T16:34:10.782Z,12.18
2023-03-21T16:36:40.256Z,18.38
2023-03-21T16:39:18.072Z,10.40
2023-03-21T16:41:45.538Z,11.05
2023-03-21T16:44:12.244Z,10.30
2023-03-21T16:46:39.163Z,9.95
2023-03-21T16:49:06.114Z,10.45
2023-03-21T16:51:35.702Z,10.93
2023-03-21T16:54:03.288Z,8.98
2023-03-21T16:56:36.126Z,10.48
2023-03-21T16:59:02.922Z,7.80
2023-03-21T17:01:30.665Z,7.32
2023-03-21T17:03:58.278Z,7.55
2023-03-21T17:06:27.723Z,12.88
2023-03-21T17:08:55.757Z,11.38
2023-03-21T17:11:25.249Z,9.05
2023-03-21T17:13:55.527Z,8.68
2023-03-21T17:16:26.904Z,8.75
2023-03-21T17:18:54.772Z,10.57
2023-03-21T17:21:26.595Z,9.52
2023-03-21T17:23:53.266Z,14.52
2023-03-21T17:26:28.449Z,12.57
2023-03-21T17:28:56.826Z,9.02
2023-03-21T17:31:25.526Z,16.63
2023-03-21T17:33:52.336Z,11.60
2023-03-21T17:36:26.481Z,11.82
2023-03-21T17:38:53.166Z,8.68
2023-03-21T17:41:22.169Z,8.98
2023-03-21T17:43:49.923Z,11.60
2023-03-21T17:46:19.472Z,8.85
2023-03-21T17:48:46.596Z,13.98
2023-03-21T17:51:15.874Z,5.30
2023-03-21T17:53:43.897Z,6.10
2023-03-21T17:56:15.559Z,9.80
2023-03-21T17:58:42.408Z,11.27
2023-03-21T18:01:09.064Z,8.85
2023-03-21T18:03:35.842Z,9.65
2023-03-21T18:06:03.797Z,9.40
2023-03-21T18:08:30.621Z,14.15
2023-03-21T18:10:57.366Z,12.98
2023-03-21T18:13:24.097Z,14.07
2023-03-21T18:15:51.105Z,8.05
2023-03-21T18:18:18.136Z,10.93
2023-03-21T18:20:52.118Z,10.70
2023-03-21T18:23:21.312Z,9.13
2023-03-21T18:25:48.107Z,16.65
2023-03-21T18:28:19.508Z,10.55
2023-03-21T18:33:37.033Z,15.65
2023-03-21T18:36:07.444Z,15.05
2023-03-21T18:38:35.505Z,14.40
2023-03-21T18:41:02.240Z,9.90
2023-03-21T18:46:16.368Z,12.68
2023-03-21T18:48:43.423Z,12.95
2023-03-21T18:51:10.118Z,14.07
2023-03-21T18:53:36.824Z,10.40
2023-03-21T18:56:09.614Z,15.55
2023-03-21T18:58:37.173Z,14.02
2023-03-21T19:01:05.209Z,9.38
2023-03-21T19:03:37.110Z,13.13
2023-03-21T19:06:05.445Z,9.13
2023-03-21T19:08:34.716Z,8.13
2023-03-21T19:11:06.029Z,13.25
2023-03-21T19:13:33.487Z,8.23
2023-03-21T19:16:02.403Z,12.23
2023-03-21T19:18:52.133Z,8.23
2023-03-21T19:21:18.852Z,7.90
2023-03-21T19:26:32.818Z,10.02
2023-03-21T19:28:59.492Z,11.13
2023-03-21T19:31:26.774Z,10.82
2023-03-21T19:33:53.773Z,8.43
2023-03-21T19:36:22.840Z,9.85
2023-03-21T19:38:50.414Z,10.52
2023-03-21T19:41:18.065Z,14.20
2023-03-21T19:43:53.673Z,13.32
2023-03-21T19:46:24.498Z,14.00
2023-03-21T19:48:51.464Z,13.95
2023-03-21T19:51:28.123Z,8.20
2023-03-21T19:53:55.222Z,11.80
2023-03-21T19:56:26.203Z,9.63
2023-03-21T19:58:53.978Z,20.83
2023-03-21T20:01:21.245Z,18.77
2023-03-21T20:03:47.979Z,12.70
2023-03-21T20:06:14.784Z,5.15
2023-03-21T20:11:28.123Z,6.82
2023-03-21T20:13:54.878Z,7.10
2023-03-21T20:16:21.659Z,14.80
2023-03-21T20:18:48.356Z,13.02
2023-03-21T20:21:18.021Z,11.60
2023-03-21T20:23:50.733Z,9.18
2023-03-21T20:26:18.342Z,8.35
2023-03-21T20:29:01.178Z,6.32
2023-03-21T20:31:35.289Z,9.55
2023-03-21T20:34:02.372Z,8.82
2023-03-21T20:36:39.332Z,7.95
2023-03-21T20:39:06.632Z,11.18
2023-03-21T20:41:33.256Z,10.63
2023-03-21T20:47:11.514Z,10.82
2023-03-21T20:49:58.043Z,9.73
2023-03-21T20:52:57.493Z,9.85
2023-03-21T20:55:13.378Z,18.35
2023-03-21T20:57:41.285Z,16.95
2023-03-21T21:00:13.538Z,7.93
2023-03-21T21:02:43.532Z,8.77
2023-03-21T21:05:42.183Z,12.27
2023-03-21T21:08:08.971Z,10.73
2023-03-21T21:10:57.692Z,9.65
2023-03-21T21:13:23.878Z,12.25
2023-03-21T21:15:50.960Z,7.85
2023-03-21T21:18:18.462Z,10.15
2023-03-21T21:20:45.114Z,8.77
2023-03-21T21:23:13.566Z,16.67
2023-03-21T21:25:40.285Z,15.23
2023-03-21T21:28:09.440Z,5.68
2023-03-21T21:30:41.195Z,18.83
2023-03-21T21:33:08.090Z,10.93
2023-03-21T21:35:35.826Z,7.40
2023-03-21T21:38:02.681Z,16.60
2023-03-21T21:40:29.556Z,19.45
2023-03-21T21:42:57.570Z,10.88
2023-03-21T21:45:24.990Z,11.48
2023-03-21T21:47:51.879Z,8.05
2023-03-21T21:50:19.845Z,12.43
2023-03-21T21:52:54.146Z,14.32
2023-03-21T21:55:21.394Z,10.77
2023-03-21T21:57:50.588Z,13.70
2023-03-21T22:00:19.364Z,11.10
2023-03-21T22:02:46.838Z,3.83
2023-03-21T22:05:13.493Z,8.27
2023-03-21T22:07:40.214Z,13.27
2023-03-21T22:10:08.015Z,13.80
2023-03-21T22:12:35.285Z,2.85
2023-03-21T22:15:02.401Z,11.57
2023-03-21T22:17:32.167Z,17.40
2023-03-21T22:20:12.548Z,17.38
2023-03-21T22:22:39.477Z,10.73
2023-03-21T22:25:09.531Z,20.17
2023-03-21T22:27:36.917Z,18.13
2023-03-21T22:30:05.114Z,9.80
2023-03-21T22:32:33.313Z,10.48
2023-03-21T22:35:02.413Z,11.38
2023-03-21T22:37:30.888Z,8.32
2023-03-21T22:39:57.595Z,9.10
2023-03-21T22:42:24.521Z,13.32
2023-03-21T22:44:51.396Z,13.73
2023-03-21T22:47:18.452Z,7.18
2023-03-21T22:49:46.214Z,13.55
2023-03-21T22:52:13.653Z,12.88
2023-03-21T22:54:40.464Z,7.35
2023-03-21T22:57:08.554Z,5.22
2023-03-21T22:59:35.218Z,14.70
2023-03-21T23:02:01.975Z,15.30
2023-03-21T23:04:28.751Z,8.55
2023-03-21T23:06:55.627Z,5.03
2023-03-21T23:09:22.337Z,9.35
2023-03-21T23:11:49.687Z,6.28
2023-03-21T23:14:17.418Z,6.15
2023-03-21T23:16:45.003Z,11.77
2023-03-21T23:19:11.892Z,11.05
2023-03-21T23:21:39.450Z,15.65
2023-03-21T23:24:07.481Z,8.05
2023-03-21T23:26:34.855Z,18.52
2023-03-21T23:29:01.453Z,13.65
2023-03-21T23:31:28.626Z,12.20
2023-03-21T23:33:57.864Z,17.55
2023-03-21T23:36:24.607Z,22.25
2023-03-21T23:38:52.600Z,6.78
2023-03-21T23:41:21.986Z,18.52
2023-03-21T23:43:49.093Z,10.82
2023-03-21T23:46:17.281Z,9.40
2023-03-21T23:48:44.964Z,13.30
2023-03-21T23:51:13.745Z,10.25
2023-03-21T23:53:40.500Z,8.43
2023-03-21T23:56:16.040Z,13.40
2023-03-21T23:58:43.255Z,13.48
